createdAt,value
2018-04-01T00:00:01.090Z,57.13
2018-04-01T00:02:28.123Z,60.80
2018-04-01T00:04:55.156Z,57.63
2018-04-01T00:07:22.151Z,54.67
2018-04-01T00:09:49.860Z,60.10
2018-04-01T00:12:16.823Z,58.80
2018-04-01T00:14:43.869Z,62.57
2018-04-01T00:17:10.907Z,61.77
2018-04-01T00:19:37.981Z,64.90
2018-04-01T00:22:05.752Z,72.63
2018-04-01T00:24:32.712Z,69.77
2018-04-01T00:27:00.452Z,64.57
2018-04-01T00:29:27.397Z,59.33
2018-04-01T00:31:54.439Z,59.07
2018-04-01T00:34:21.490Z,64.13
2018-04-01T00:36:48.546Z,61.77
2018-04-01T00:39:15.564Z,60.93
2018-04-01T00:41:42.624Z,60.90
2018-04-01T00:44:09.679Z,55.03
2018-04-01T00:46:36.780Z,59.47
2018-04-01T00:49:03.716Z,61.80
2018-04-01T00:51:30.724Z,63.23
2018-04-01T00:53:57.682Z,60.70
2018-04-01T00:56:25.434Z,55.97
2018-04-01T00:58:52.387Z,55.13
2018-04-01T01:01:20.127Z,52.77
2018-04-01T01:03:47.104Z,49.83
2018-04-01T01:06:14.834Z,57.70
2018-04-01T01:08:41.896Z,50.90
2018-04-01T01:11:08.857Z,46.03
2018-04-01T01:13:36.692Z,48.97
2018-04-01T01:16:03.723Z,49.97
2018-04-01T01:18:30.757Z,46.40
2018-04-01T01:20:58.886Z,50.63
2018-04-01T01:23:26.642Z,59.87
2018-04-01T01:25:53.608Z,50.40
2018-04-01T01:28:21.418Z,54.60
2018-04-01T01:30:48.477Z,53.83
2018-04-01T01:33:15.522Z,51.77
2018-04-01T01:35:42.567Z,56.70
2018-04-01T01:38:09.552Z,51.80
2018-04-01T01:40:37.895Z,57.87
2018-04-01T01:43:04.846Z,57.83
2018-04-01T01:45:31.897Z,54.63
2018-04-01T01:47:58.923Z,63.20
2018-04-01T01:50:25.978Z,59.13
2018-04-01T01:52:53.039Z,55.83
2018-04-01T01:55:20.017Z,56.27
2018-04-01T01:57:47.815Z,57.30
2018-04-01T02:00:14.775Z,62.27
2018-04-01T02:02:41.751Z,67.13
2018-04-01T02:05:08.775Z,67.90
2018-04-01T02:07:35.757Z,63.03
2018-04-01T02:10:03.472Z,61.23
2018-04-01T02:12:30.439Z,63.00
2018-04-01T02:14:57.492Z,66.73
2018-04-01T02:17:24.443Z,67.00
2018-04-01T02:19:51.408Z,66.00
2018-04-01T02:22:19.235Z,62.07
2018-04-01T02:24:46.287Z,64.53
2018-04-01T02:27:13.282Z,65.90
2018-04-01T02:29:40.235Z,70.60
2018-04-01T02:32:07.190Z,68.70
2018-04-01T02:34:34.260Z,79.43
2018-04-01T02:37:01.319Z,77.17
2018-04-01T02:39:28.289Z,66.40
2018-04-01T02:41:55.235Z,80.03
2018-04-01T02:44:23.000Z,65.80
2018-04-01T02:46:50.033Z,65.67
2018-04-01T02:49:17.019Z,67.83
2018-04-01T02:51:44.846Z,67.13
2018-04-01T02:54:11.884Z,68.70
2018-04-01T02:56:38.843Z,72.33
2018-04-01T02:59:05.845Z,70.77
2018-04-01T03:01:32.824Z,74.50
2018-04-01T03:03:59.864Z,66.87
2018-04-01T03:06:26.903Z,59.40
2018-04-01T03:08:53.946Z,66.10
2018-04-01T03:11:20.973Z,67.20
2018-04-01T03:13:47.946Z,63.73
2018-04-01T03:16:15.008Z,61.40
2018-04-01T03:18:42.151Z,63.30
2018-04-01T03:21:09.212Z,54.03
2018-04-01T03:23:37.046Z,67.93
2018-04-01T03:26:04.105Z,58.50
2018-04-01T03:28:31.160Z,62.60
2018-04-01T03:30:58.196Z,59.83
2018-04-01T03:33:25.252Z,63.90
2018-04-01T03:35:52.295Z,58.70
2018-04-01T03:38:19.264Z,53.57
2018-04-01T03:40:46.279Z,57.90
2018-04-01T03:43:13.352Z,62.17
2018-04-01T03:45:40.327Z,69.83
2018-04-01T03:48:08.072Z,64.73
2018-04-01T03:50:35.058Z,60.03
2018-04-01T03:53:02.036Z,57.63
2018-04-01T03:55:29.093Z,54.53
2018-04-01T03:57:56.045Z,61.60
2018-04-01T04:00:23.067Z,61.63
2018-04-01T04:02:50.746Z,65.43
2018-04-01T04:05:17.691Z,53.60
2018-04-01T04:07:44.682Z,63.67
2018-04-01T04:10:12.395Z,51.10
2018-04-01T04:12:39.335Z,56.20
2018-04-01T04:15:06.317Z,43.10
2018-04-01T04:17:34.214Z,38.30
2018-04-01T04:20:01.121Z,35.10
2018-04-01T04:22:28.084Z,33.93
2018-04-01T04:24:55.912Z,36.60
2018-04-01T04:27:22.886Z,34.00
2018-04-01T04:29:50.602Z,36.00
2018-04-01T04:32:17.579Z,41.47
2018-04-01T04:34:44.594Z,37.20
2018-04-01T04:37:11.652Z,37.80
2018-04-01T04:39:38.690Z,30.10
2018-04-01T04:42:05.633Z,32.10
2018-04-01T04:44:32.612Z,31.70
2018-04-01T04:46:59.580Z,35.93
2018-04-01T04:49:27.412Z,32.67
2018-04-01T04:51:54.355Z,32.43
2018-04-01T04:54:21.343Z,32.53
2018-04-01T04:56:49.165Z,29.30
2018-04-01T04:59:16.199Z,35.80
2018-04-01T05:01:43.249Z,33.60
2018-04-01T05:04:10.471Z,31.27
2018-04-01T05:06:37.434Z,35.10
2018-04-01T05:09:04.502Z,31.73
2018-04-01T05:11:31.446Z,34.40
2018-04-01T05:13:58.490Z,28.37
2018-04-01T05:16:25.444Z,30.10
2018-04-01T05:18:52.488Z,28.50
2018-04-01T05:21:19.459Z,30.10
2018-04-01T05:23:47.178Z,31.30
2018-04-01T05:26:14.143Z,30.73
2018-04-01T05:28:41.088Z,29.57
2018-04-01T05:31:08.054Z,32.37
2018-04-01T05:33:35.029Z,29.57
2018-04-01T05:36:02.015Z,28.73
2018-04-01T05:38:28.987Z,36.70
2018-04-01T05:40:56.015Z,33.03
2018-04-01T05:43:22.995Z,29.87
2018-04-01T05:45:50.749Z,28.97
2018-04-01T05:48:17.700Z,30.03
2018-04-01T05:50:45.451Z,28.67
2018-04-01T05:53:12.475Z,26.90
2018-04-01T05:55:39.423Z,28.47
2018-04-01T05:58:06.465Z,30.00
2018-04-01T06:00:33.426Z,31.10
2018-04-01T06:03:00.392Z,28.77
2018-04-01T06:05:27.352Z,32.30
2018-04-01T06:07:55.061Z,27.47
2018-04-01T06:10:22.105Z,25.83
2018-04-01T06:12:49.046Z,28.80
2018-04-01T06:15:16.031Z,28.43
2018-04-01T06:17:43.066Z,27.13
2018-04-01T06:20:10.042Z,24.60
2018-04-01T06:22:37.781Z,32.27
2018-04-01T06:25:04.799Z,24.60
2018-04-01T06:27:31.837Z,19.90
2018-04-01T06:29:58.792Z,22.03
2018-04-01T06:32:25.771Z,24.07
2018-04-01T06:34:52.745Z,21.03
2018-04-01T06:37:20.475Z,24.37
2018-04-01T06:39:48.934Z,19.37
2018-04-01T06:42:15.903Z,21.13
2018-04-01T06:44:42.880Z,19.47
2018-04-01T06:47:09.848Z,23.20
2018-04-01T06:49:36.805Z,20.93
2018-04-01T06:52:03.776Z,24.23
2018-04-01T06:54:30.744Z,20.10
2018-04-01T06:56:58.544Z,22.97
2018-04-01T06:59:25.520Z,27.67
2018-04-01T07:01:52.469Z,25.33
2018-04-01T07:04:19.456Z,22.67
2018-04-01T07:06:47.191Z,18.73
2018-04-01T07:09:14.180Z,22.27
2018-04-01T07:11:41.133Z,20.70
2018-04-01T07:14:08.099Z,22.70
2018-04-01T07:16:35.079Z,21.70
2018-04-01T07:19:02.022Z,18.50
2018-04-01T07:21:29.050Z,20.07
2018-04-01T07:23:56.006Z,18.47
2018-04-01T07:26:23.048Z,22.67
2018-04-01T07:28:50.109Z,18.90
2018-04-01T07:31:17.148Z,18.83
2018-04-01T07:33:44.113Z,19.63
2018-04-01T07:36:11.904Z,24.60
2018-04-01T07:38:39.603Z,22.70
2018-04-01T07:41:06.657Z,23.03
2018-04-01T07:43:33.716Z,23.50
2018-04-01T07:46:00.707Z,20.73
2018-04-01T07:48:27.671Z,19.70
2018-04-01T07:50:54.627Z,18.53
2018-04-01T07:53:21.659Z,22.03
2018-04-01T07:55:48.598Z,19.93
2018-04-01T07:58:15.560Z,24.10
2018-04-01T08:00:42.553Z,22.70
2018-04-01T08:03:09.566Z,21.73
2018-04-01T08:05:36.628Z,25.83
2018-04-01T08:08:03.645Z,22.20
2018-04-01T08:10:31.335Z,21.23
2018-04-01T08:12:58.278Z,20.93
2018-04-01T08:15:25.294Z,21.10
2018-04-01T08:17:52.294Z,20.73
2018-04-01T08:20:20.023Z,25.70
2018-04-01T08:22:47.032Z,30.87
2018-04-01T08:25:14.025Z,27.67
2018-04-01T08:27:41.009Z,22.50
2018-04-01T08:30:08.746Z,20.33
2018-04-01T08:32:35.698Z,21.03
2018-04-01T08:35:02.795Z,21.90
2018-04-01T08:37:29.759Z,17.20
2018-04-01T08:39:56.727Z,22.73
2018-04-01T08:42:23.686Z,20.20
2018-04-01T08:44:50.678Z,23.10
2018-04-01T08:47:17.628Z,17.73
2018-04-01T08:49:44.597Z,17.80
2018-04-01T08:52:11.614Z,19.73
2018-04-01T08:54:38.559Z,18.87
2018-04-01T08:57:05.515Z,22.50
2018-04-01T08:59:32.576Z,18.93
2018-04-01T09:01:59.495Z,20.97
2018-04-01T09:04:26.563Z,17.80
2018-04-01T09:06:53.630Z,22.43
2018-04-01T09:09:20.676Z,19.33
2018-04-01T09:11:47.642Z,20.90
2018-04-01T09:14:14.618Z,19.73
2018-04-01T09:16:41.593Z,19.60
2018-04-01T09:19:08.555Z,19.50
2018-04-01T09:21:35.495Z,18.70
2018-04-01T09:24:02.480Z,19.47
2018-04-01T09:26:29.450Z,19.60
2018-04-01T09:28:56.507Z,17.00
2018-04-01T09:31:23.443Z,16.27
2018-04-01T09:33:50.427Z,15.67
2018-04-01T09:36:17.485Z,21.10
2018-04-01T09:38:44.527Z,19.80
2018-04-01T09:41:11.574Z,17.40
2018-04-01T09:43:38.585Z,18.63
2018-04-01T09:46:05.539Z,17.00
2018-04-01T09:48:32.512Z,17.43
2018-04-01T09:50:59.570Z,21.27
2018-04-01T09:53:26.516Z,16.47
2018-04-01T09:55:53.535Z,17.10
2018-04-01T09:58:20.502Z,16.63
2018-04-01T10:00:48.735Z,16.17
2018-04-01T10:03:16.194Z,14.77
2018-04-01T10:05:43.644Z,13.33
2018-04-01T10:08:11.138Z,13.40
2018-04-01T10:10:38.584Z,13.40
2018-04-01T10:13:06.224Z,12.80
2018-04-01T10:15:33.712Z,12.50
2018-04-01T10:18:01.176Z,14.73
2018-04-01T10:20:28.626Z,15.53
2018-04-01T10:22:56.090Z,15.93
2018-04-01T10:25:23.537Z,13.30
2018-04-01T10:27:50.971Z,14.77
2018-04-01T10:30:18.445Z,15.57
2018-04-01T10:32:46.673Z,15.70
2018-04-01T10:35:14.892Z,15.67
2018-04-01T10:37:42.324Z,17.10
2018-04-01T10:40:09.795Z,18.50
2018-04-01T10:42:37.268Z,18.57
2018-04-01T10:45:04.725Z,22.83
2018-04-01T10:47:32.272Z,30.87
2018-04-01T10:50:00.260Z,16.43
2018-04-01T10:52:27.745Z,27.23
2018-04-01T10:54:54.920Z,21.67
2018-04-01T10:57:21.873Z,20.43
2018-04-01T10:59:48.844Z,19.70
2018-04-01T11:02:15.806Z,21.73
2018-04-01T11:04:42.775Z,16.97
2018-04-01T11:07:09.766Z,16.80
2018-04-01T11:09:36.715Z,18.80
2018-04-01T11:12:03.803Z,21.57
2018-04-01T11:14:30.764Z,19.87
2018-04-01T11:16:57.830Z,19.17
2018-04-01T11:19:24.785Z,19.60
2018-04-01T11:21:51.766Z,17.70
2018-04-01T11:24:19.538Z,17.53
2018-04-01T11:26:46.571Z,19.80
2018-04-01T11:29:13.604Z,17.57
2018-04-01T11:31:41.315Z,17.47
2018-04-01T11:34:08.296Z,16.97
2018-04-01T11:36:35.249Z,19.47
2018-04-01T11:39:02.211Z,17.00
2018-04-01T11:41:29.155Z,17.07
2018-04-01T11:43:56.192Z,15.70
2018-04-01T11:46:23.130Z,17.67
2018-04-01T11:48:50.116Z,14.43
2018-04-01T11:51:17.085Z,19.30
2018-04-01T11:53:44.055Z,16.10
2018-04-01T11:56:11.791Z,14.47
2018-04-01T11:58:38.889Z,16.30
2018-04-01T12:01:06.038Z,16.47
2018-04-01T12:03:33.046Z,16.47
2018-04-01T12:06:00.024Z,15.00
2018-04-01T12:08:26.968Z,16.67
2018-04-01T12:10:53.993Z,14.47
2018-04-01T12:13:21.762Z,14.90
2018-04-01T12:15:49.543Z,19.30
2018-04-01T12:18:16.660Z,18.30
2018-04-01T12:20:43.571Z,16.20
2018-04-01T12:23:10.543Z,17.00
2018-04-01T12:25:37.540Z,15.67
2018-04-01T12:28:04.511Z,16.37
2018-04-01T12:30:31.496Z,17.90
2018-04-01T12:32:59.257Z,29.30
2018-04-01T12:35:26.986Z,18.67
2018-04-01T12:37:53.996Z,19.40
2018-04-01T12:40:21.031Z,22.47
2018-04-01T12:42:48.766Z,25.77
2018-04-01T12:45:15.744Z,23.50
2018-04-01T12:47:42.706Z,25.77
2018-04-01T12:50:09.655Z,32.20
2018-04-01T12:52:36.660Z,33.30
2018-04-01T12:55:03.625Z,31.30
2018-04-01T12:57:30.625Z,35.93
2018-04-01T12:59:57.560Z,34.43
2018-04-01T13:02:24.530Z,32.37
2018-04-01T13:04:51.552Z,40.73
2018-04-01T13:07:18.528Z,36.80
2018-04-01T13:09:46.268Z,38.30
2018-04-01T13:12:13.262Z,36.73
2018-04-01T13:14:40.626Z,34.03
2018-04-01T13:17:07.574Z,30.10
2018-04-01T13:19:34.544Z,32.80
2018-04-01T13:22:01.636Z,38.77
2018-04-01T13:24:29.367Z,31.60
2018-04-01T13:26:56.315Z,25.43
2018-04-01T13:29:23.311Z,23.23
2018-04-01T13:31:50.267Z,29.37
2018-04-01T13:34:17.210Z,26.00
2018-04-01T13:36:44.200Z,26.20
2018-04-01T13:39:11.156Z,23.77
2018-04-01T13:41:38.107Z,29.13
2018-04-01T13:44:05.073Z,24.60
2018-04-01T13:46:32.827Z,26.53
2018-04-01T13:48:59.809Z,25.20
2018-04-01T13:51:26.748Z,21.70
2018-04-01T13:53:53.727Z,20.97
2018-04-01T13:56:21.174Z,20.80
2018-04-01T13:58:48.421Z,20.67
2018-04-01T14:01:15.766Z,16.63
2018-04-01T14:03:42.962Z,18.47
2018-04-01T14:06:10.272Z,19.60
2018-04-01T14:08:38.855Z,18.77
2018-04-01T14:11:07.046Z,16.50
2018-04-01T14:13:34.098Z,21.07
2018-04-01T14:16:01.330Z,22.10
2018-04-01T14:18:28.430Z,20.00
2018-04-01T14:20:55.524Z,14.90
2018-04-01T14:23:22.784Z,17.20
2018-04-01T14:25:49.812Z,17.53
2018-04-01T14:28:16.910Z,16.93
2018-04-01T14:30:45.355Z,15.80
2018-04-01T14:33:12.613Z,18.60
2018-04-01T14:35:39.708Z,16.30
2018-04-01T14:38:07.899Z,15.90
2018-04-01T14:40:34.907Z,15.97
2018-04-01T14:43:02.132Z,19.17
2018-04-01T14:45:29.336Z,16.53
2018-04-01T14:47:57.348Z,15.53
2018-04-01T14:50:24.331Z,22.50
2018-04-01T14:52:51.320Z,18.00
2018-04-01T14:55:18.307Z,21.00
2018-04-01T14:57:45.256Z,20.13
2018-04-01T15:00:12.258Z,17.70
2018-04-01T15:02:39.242Z,18.23
2018-04-01T15:05:06.310Z,20.00
2018-04-01T15:07:33.297Z,20.87
2018-04-01T15:10:00.262Z,18.40
2018-04-01T15:12:27.215Z,19.70
2018-04-01T15:14:54.203Z,21.10
2018-04-01T15:17:21.143Z,23.90
2018-04-01T15:19:48.097Z,23.90
2018-04-01T15:22:15.071Z,25.57
2018-04-01T15:24:42.044Z,25.97
2018-04-01T15:27:09.003Z,28.97
2018-04-01T15:29:35.985Z,24.73
2018-04-01T15:32:02.962Z,27.83
2018-04-01T15:34:29.941Z,25.17
2018-04-01T15:36:56.891Z,23.53
2018-04-01T15:39:23.883Z,27.43
2018-04-01T15:41:51.615Z,25.70
2018-04-01T15:44:18.643Z,23.27
2018-04-01T15:46:45.656Z,21.90
2018-04-01T15:49:13.389Z,22.50
2018-04-01T15:51:40.412Z,27.73
2018-04-01T15:54:07.371Z,22.97
2018-04-01T15:56:34.357Z,25.47
2018-04-01T15:59:02.870Z,22.10
2018-04-01T16:01:29.854Z,21.17
2018-04-01T16:03:57.583Z,24.50
2018-04-01T16:06:24.607Z,24.50
2018-04-01T16:08:51.569Z,24.67
2018-04-01T16:11:18.599Z,26.47
2018-04-01T16:13:45.568Z,25.47
2018-04-01T16:16:12.507Z,24.30
2018-04-01T16:18:39.507Z,27.17
2018-04-01T16:21:07.239Z,26.30
2018-04-01T16:23:34.241Z,27.37
2018-04-01T16:26:01.231Z,27.67
2018-04-01T16:28:28.186Z,24.63
2018-04-01T16:30:55.139Z,22.07
2018-04-01T16:33:22.114Z,26.17
2018-04-01T16:35:49.060Z,22.67
2018-04-01T16:38:16.161Z,20.80
2018-04-01T16:40:43.119Z,27.27
2018-04-01T16:43:10.091Z,25.00
2018-04-01T16:45:37.065Z,20.00
2018-04-01T16:48:04.028Z,23.57
2018-04-01T16:50:30.999Z,24.13
2018-04-01T16:52:57.957Z,22.97
2018-04-01T16:55:24.914Z,23.20
2018-04-01T16:57:52.690Z,21.53
2018-04-01T17:00:19.636Z,22.90
2018-04-01T17:02:46.611Z,21.17
2018-04-01T17:05:13.569Z,26.43
2018-04-01T17:07:40.533Z,22.93
2018-04-01T17:10:07.503Z,25.77
2018-04-01T17:12:35.303Z,31.67
2018-04-01T17:15:02.269Z,24.70
2018-04-01T17:17:29.211Z,24.50
2018-04-01T17:19:56.166Z,25.47
2018-04-01T17:22:23.145Z,26.47
2018-04-01T17:24:50.864Z,20.47
2018-04-01T17:27:17.835Z,28.00
2018-04-01T17:29:44.784Z,24.40
2018-04-01T17:32:11.769Z,22.30
2018-04-01T17:34:38.719Z,25.73
2018-04-01T17:37:05.795Z,25.07
2018-04-01T17:39:32.731Z,37.33
2018-04-01T17:41:59.715Z,28.90
2018-04-01T17:44:26.671Z,28.70
2018-04-01T17:46:54.401Z,27.83
2018-04-01T17:49:21.357Z,26.70
2018-04-01T17:51:48.299Z,32.93
2018-04-01T17:54:15.279Z,25.60
2018-04-01T17:56:43.023Z,27.80
2018-04-01T17:59:10.838Z,29.10
2018-04-01T18:01:38.965Z,31.07
2018-04-01T18:04:06.699Z,27.40
2018-04-01T18:06:33.672Z,29.97
2018-04-01T18:09:00.634Z,27.73
2018-04-01T18:11:28.388Z,25.80
2018-04-01T18:13:55.363Z,21.57
2018-04-01T18:16:22.302Z,20.03
2018-04-01T18:18:49.346Z,13.33
2018-04-01T18:21:16.300Z,13.13
2018-04-01T18:23:44.024Z,15.43
2018-04-01T18:26:10.987Z,15.63
2018-04-01T18:28:38.696Z,14.33
2018-04-01T18:31:06.403Z,22.33
2018-04-01T18:33:34.185Z,12.40
2018-04-01T18:36:01.094Z,10.37
2018-04-01T18:38:28.048Z,11.30
2018-04-01T18:40:55.022Z,13.50
2018-04-01T18:43:21.976Z,16.77
2018-04-01T18:45:48.946Z,10.30
2018-04-01T18:48:15.927Z,13.10
2018-04-01T18:50:42.868Z,16.03
2018-04-01T18:53:09.832Z,16.03
2018-04-01T18:55:36.784Z,16.77
2018-04-01T18:58:04.517Z,14.13
2018-04-01T19:00:31.469Z,17.90
2018-04-01T19:02:58.461Z,14.23
2018-04-01T19:05:25.407Z,15.17
2018-04-01T19:07:52.401Z,16.23
2018-04-01T19:10:19.351Z,14.20
2018-04-01T19:12:46.307Z,16.93
2018-04-01T19:15:13.296Z,20.07
2018-04-01T19:17:40.756Z,18.50
2018-04-01T19:20:08.222Z,16.80
2018-04-01T19:22:35.700Z,19.47
2018-04-01T19:25:03.172Z,17.80
2018-04-01T19:27:30.707Z,32.33
2018-04-01T19:29:58.149Z,24.10
2018-04-01T19:32:25.615Z,21.23
2018-04-01T19:34:53.089Z,29.70
2018-04-01T19:37:20.546Z,21.40
2018-04-01T19:39:48.105Z,21.00
2018-04-01T19:42:15.734Z,21.17
2018-04-01T19:44:43.163Z,18.80
2018-04-01T19:47:11.486Z,20.00
2018-04-01T19:49:39.047Z,23.20
2018-04-01T19:52:06.619Z,19.33
2018-04-01T19:54:34.072Z,21.57
2018-04-01T19:57:01.524Z,24.47
2018-04-01T19:59:28.983Z,22.07
2018-04-01T20:01:56.437Z,25.67
2018-04-01T20:04:23.974Z,21.60
2018-04-01T20:06:51.493Z,22.80
2018-04-01T20:09:18.876Z,26.57
2018-04-01T20:11:46.447Z,25.10
2018-04-01T20:14:13.895Z,25.10
2018-04-01T20:16:41.372Z,26.30
2018-04-01T20:19:08.839Z,24.37
2018-04-01T20:21:36.309Z,31.70
2018-04-01T20:24:03.772Z,35.67
2018-04-01T20:26:31.313Z,25.47
2018-04-01T20:28:58.772Z,33.73
2018-04-01T20:31:26.240Z,29.60
2018-04-01T20:33:53.794Z,30.87
2018-04-01T20:36:21.253Z,34.57
2018-04-01T20:38:48.884Z,33.13
2018-04-01T20:41:16.371Z,32.30
2018-04-01T20:43:43.833Z,37.17
2018-04-01T20:46:11.315Z,32.80
2018-04-01T20:48:38.837Z,37.70
2018-04-01T20:51:06.308Z,39.87
2018-04-01T20:53:33.761Z,38.23
2018-04-01T20:56:01.287Z,43.00
2018-04-01T20:58:28.744Z,40.13
2018-04-01T21:00:56.207Z,39.50
2018-04-01T21:03:23.659Z,42.87
2018-04-01T21:05:51.218Z,44.87
2018-04-01T21:08:18.678Z,43.30
2018-04-01T21:10:46.108Z,48.43
2018-04-01T21:13:14.346Z,40.33
2018-04-01T21:15:41.783Z,44.80
2018-04-01T21:18:09.263Z,45.53
2018-04-01T21:20:36.715Z,46.70
2018-04-01T21:23:04.179Z,43.73
2018-04-01T21:25:31.610Z,51.23
2018-04-01T21:27:59.087Z,50.20
2018-04-01T21:30:26.526Z,46.53
2018-04-01T21:32:53.997Z,47.00
2018-04-01T21:35:21.433Z,49.37
2018-04-01T21:37:48.927Z,50.80
2018-04-01T21:40:16.344Z,56.07
2018-04-01T21:42:43.796Z,46.80
2018-04-01T21:45:11.249Z,60.33
2018-04-01T21:47:38.705Z,55.53
2018-04-01T21:50:06.171Z,54.23
2018-04-01T21:52:33.624Z,56.10
2018-04-01T21:55:01.077Z,55.30
2018-04-01T21:57:28.546Z,59.47
2018-04-01T21:59:55.999Z,57.63
2018-04-01T22:02:23.449Z,65.53
2018-04-01T22:04:50.915Z,58.00
2018-04-01T22:07:18.375Z,62.40
2018-04-01T22:09:45.920Z,55.33
2018-04-01T22:12:13.354Z,58.13
2018-04-01T22:14:41.605Z,52.03
2018-04-01T22:17:09.056Z,52.50
2018-04-01T22:19:36.498Z,56.70
2018-04-01T22:22:03.948Z,54.23
2018-04-01T22:24:31.422Z,53.00
2018-04-01T22:26:58.891Z,47.97
2018-04-01T22:29:26.323Z,53.73
2018-04-01T22:31:53.797Z,58.63
2018-04-01T22:34:21.232Z,70.07
2018-04-01T22:36:48.684Z,74.00
2018-04-01T22:39:16.141Z,64.67
2018-04-01T22:41:43.596Z,57.17
2018-04-01T22:44:11.064Z,67.67
2018-04-01T22:46:38.536Z,56.40
2018-04-01T22:49:05.964Z,50.80
2018-04-01T22:51:33.417Z,61.67
2018-04-01T22:54:00.884Z,56.50
2018-04-01T22:56:28.353Z,51.13
2018-04-01T22:58:55.794Z,58.07
2018-04-01T23:01:23.248Z,51.17
2018-04-01T23:03:50.711Z,60.60
2018-04-01T23:06:18.173Z,52.87
2018-04-01T23:08:45.612Z,57.57
2018-04-01T23:11:13.115Z,56.27
2018-04-01T23:13:40.594Z,57.43
2018-04-01T23:16:08.802Z,55.47
2018-04-01T23:18:36.353Z,58.77
2018-04-01T23:21:03.819Z,60.90
2018-04-01T23:23:31.306Z,50.43
2018-04-01T23:25:59.210Z,67.43
2018-04-01T23:28:27.437Z,60.10
2018-04-01T23:30:54.928Z,63.07
2018-04-01T23:33:22.359Z,52.00
2018-04-01T23:35:49.824Z,56.70
2018-04-01T23:38:17.303Z,54.10
2018-04-01T23:40:44.768Z,60.60
2018-04-01T23:43:13.011Z,56.77
2018-04-01T23:45:40.449Z,57.43
2018-04-01T23:48:07.988Z,54.70
2018-04-01T23:50:35.457Z,56.57
2018-04-01T23:53:02.901Z,49.87
2018-04-01T23:55:30.339Z,53.40
2018-04-01T23:57:57.791Z,55.60
